createdAt,value
2018-10-11T00:01:55.202Z,101340.52
2018-10-11T00:04:24.771Z,101334.44
2018-10-11T00:06:54.361Z,101338.37
2018-10-11T00:09:23.933Z,101344.92
2018-10-11T00:11:53.461Z,101339.22
2018-10-11T00:14:23.157Z,101334.81
2018-10-11T00:16:52.884Z,101334.75
2018-10-11T00:19:22.588Z,101334.73
2018-10-11T00:21:52.215Z,101339.08
2018-10-11T00:24:21.879Z,101330.74
2018-10-11T00:26:51.471Z,101339.05
2018-10-11T00:29:21.056Z,101338.18
2018-10-11T00:31:50.649Z,101338.16
2018-10-11T00:34:20.249Z,101335.56
2018-10-11T00:36:49.865Z,101333.33
2018-10-11T00:39:19.706Z,101328.94
2018-10-11T00:41:49.307Z,101332.43
2018-10-11T00:44:18.893Z,101329.35
2018-10-11T00:46:48.569Z,101334.19
2018-10-11T00:49:18.258Z,101328.47
2018-10-11T00:51:47.893Z,101326.73
2018-10-11T00:54:17.467Z,101323.62
2018-10-11T00:56:47.021Z,101320.95
2018-10-11T00:59:16.633Z,101317.86
2018-10-11T01:01:46.209Z,101317.41
2018-10-11T01:04:15.908Z,101313.84
2018-10-11T01:06:45.516Z,101311.16
2018-10-11T01:09:15.142Z,101303.23
2018-10-11T01:11:44.746Z,101304.52
2018-10-11T01:14:14.294Z,101297.89
2018-10-11T01:16:43.924Z,101299.17
2018-10-11T01:19:13.498Z,101296.12
2018-10-11T01:21:43.121Z,101295.22
2018-10-11T01:24:12.749Z,101287.79
2018-10-11T01:26:42.342Z,101300.08
2018-10-11T01:29:18.250Z,101290.08
2018-10-11T01:31:47.784Z,101294.45
2018-10-11T01:34:17.293Z,101285.71
2018-10-11T01:36:46.847Z,101289.59
2018-10-11T01:39:16.379Z,101292.21
2018-10-11T01:41:45.981Z,101288.23
2018-10-11T01:44:15.536Z,101288.26
2018-10-11T01:46:45.100Z,101286.45
2018-10-11T01:49:14.626Z,101299.55
2018-10-11T01:51:44.303Z,101295.53
2018-10-11T01:54:13.908Z,101286.28
2018-10-11T01:56:43.508Z,101292.34
2018-10-11T01:59:13.116Z,101286.16
2018-10-11T02:01:42.666Z,101283.92
2018-10-11T02:04:12.219Z,101290.02
2018-10-11T02:06:41.749Z,101288.67
2018-10-11T02:09:11.268Z,101282.53
2018-10-11T02:11:40.804Z,101288.22
2018-10-11T02:14:10.302Z,101283.41
2018-10-11T02:16:39.902Z,101283.39
2018-10-11T02:19:09.479Z,101288.16
2018-10-11T02:21:38.962Z,101281.58
2018-10-11T02:24:09.083Z,101281.08
2018-10-11T02:26:38.594Z,101273.21
2018-10-11T02:29:08.987Z,101261.83
2018-10-11T02:31:38.536Z,101258.71
2018-10-11T02:34:08.099Z,101259.95
2018-10-11T02:36:37.708Z,101259.92
2018-10-11T02:39:09.158Z,101260.36
2018-10-11T02:41:38.806Z,101252.48
2018-10-11T02:44:08.397Z,101258.60
2018-10-11T02:46:37.916Z,101258.17
2018-10-11T02:49:07.469Z,101252.51
2018-10-11T02:51:37.085Z,101267.29
2018-10-11T02:54:07.044Z,101242.46
2018-10-11T02:56:36.660Z,101255.55
2018-10-11T02:59:34.358Z,101244.22
2018-10-11T03:02:10.304Z,101243.32
2018-10-11T03:04:39.964Z,101238.56
2018-10-11T03:07:10.878Z,101248.21
2018-10-11T03:09:41.311Z,101239.97
2018-10-11T03:12:11.189Z,101241.75
2018-10-11T03:14:40.886Z,101244.83
2018-10-11T03:17:10.631Z,101247.03
2018-10-11T03:19:40.890Z,101234.36
2018-10-11T03:22:10.585Z,101233.52
2018-10-11T03:24:40.263Z,101237.00
2018-10-11T03:27:10.131Z,101234.41
2018-10-11T03:29:39.922Z,101236.59
2018-10-11T03:32:09.471Z,101241.84
2018-10-11T03:34:38.978Z,101234.81
2018-10-11T03:37:08.560Z,101236.14
2018-10-11T03:39:38.088Z,101229.50
2018-10-11T03:42:07.631Z,101238.62
2018-10-11T03:44:37.183Z,101233.37
2018-10-11T03:47:06.768Z,101232.43
2018-10-11T03:49:36.316Z,101231.06
2018-10-11T03:52:05.812Z,101230.97
2018-10-11T03:54:35.386Z,101224.41
2018-10-11T03:57:04.942Z,101224.36
2018-10-11T03:59:34.472Z,101225.14
2018-10-11T04:02:04.143Z,101229.84
2018-10-11T04:04:33.660Z,101220.65
2018-10-11T04:07:03.203Z,101226.31
2018-10-11T04:09:32.720Z,101219.31
2018-10-11T04:12:02.243Z,101216.67
2018-10-11T04:14:31.767Z,101213.15
2018-10-11T04:17:01.276Z,101221.85
2018-10-11T04:19:30.751Z,101219.69
2018-10-11T04:22:00.271Z,101214.91
2018-10-11T04:24:29.776Z,101206.58
2018-10-11T04:26:59.519Z,101211.41
2018-10-11T04:29:29.692Z,101203.61
2018-10-11T04:31:59.550Z,101215.39
2018-10-11T04:34:29.336Z,101209.30
2018-10-11T04:36:59.172Z,101200.54
2018-10-11T04:39:28.996Z,101203.56
2018-10-11T04:41:58.824Z,101189.14
2018-10-11T04:44:29.978Z,101194.75
2018-10-11T04:46:59.760Z,101205.22
2018-10-11T04:49:29.601Z,101190.42
2018-10-11T04:51:59.394Z,101180.05
2018-10-11T04:54:29.222Z,101180.12
2018-10-11T04:56:59.038Z,101173.69
2018-10-11T04:59:31.750Z,101179.01
2018-10-11T05:02:01.504Z,101175.16
2018-10-11T05:04:31.305Z,101177.36
2018-10-11T05:07:01.093Z,101181.31
2018-10-11T05:09:30.867Z,101184.83
2018-10-11T05:12:00.890Z,101180.94
2018-10-11T05:14:30.974Z,101179.27
2018-10-11T05:17:00.804Z,101180.59
2018-10-11T05:19:30.853Z,101183.22
2018-10-11T05:22:00.667Z,101188.97
2018-10-11T05:24:30.595Z,101187.71
2018-10-11T05:27:00.421Z,101179.02
2018-10-11T05:29:30.396Z,101187.75
2018-10-11T05:32:00.273Z,101185.99
2018-10-11T05:34:30.164Z,101176.83
2018-10-11T05:36:59.928Z,101190.80
2018-10-11T05:39:29.779Z,101186.85
2018-10-11T05:41:59.797Z,101193.83
2018-10-11T05:44:29.707Z,101194.73
2018-10-11T05:46:59.452Z,101189.11
2018-10-11T05:49:29.314Z,101187.81
2018-10-11T05:51:59.251Z,101186.53
2018-10-11T05:54:29.220Z,101181.35
2018-10-11T05:56:59.082Z,101175.78
2018-10-11T05:59:29.384Z,101175.95
2018-10-11T06:01:59.512Z,101176.88
2018-10-11T06:04:29.747Z,101175.50
2018-10-11T06:06:59.716Z,101177.52
2018-10-11T06:09:29.685Z,101174.06
2018-10-11T06:11:59.936Z,101174.47
2018-10-11T06:14:29.906Z,101200.69
2018-10-11T06:16:59.783Z,101180.38
2018-10-11T06:19:29.635Z,101178.46
2018-10-11T06:21:59.483Z,101172.96
2018-10-11T06:24:29.644Z,101166.64
2018-10-11T06:26:59.575Z,101173.92
2018-10-11T06:29:29.602Z,101168.82
2018-10-11T06:32:00.000Z,101168.06
2018-10-11T06:34:30.009Z,101174.34
2018-10-11T06:37:01.426Z,101172.57
2018-10-11T06:39:31.278Z,101182.91
2018-10-11T06:42:01.320Z,101173.97
2018-10-11T06:44:31.157Z,101175.87
2018-10-11T06:47:01.381Z,101171.77
2018-10-11T06:49:31.331Z,101175.87
2018-10-11T06:52:01.449Z,101174.64
2018-10-11T06:54:32.026Z,101182.11
2018-10-11T06:57:01.790Z,101183.44
2018-10-11T06:59:31.534Z,101188.06
2018-10-11T07:02:01.429Z,101189.86
2018-10-11T07:04:31.326Z,101174.20
2018-10-11T07:07:01.102Z,101174.83
2018-10-11T07:09:30.878Z,101176.89
2018-10-11T07:12:00.635Z,101197.21
2018-10-11T07:14:30.460Z,101189.67
2018-10-11T07:17:00.355Z,101200.45
2018-10-11T07:19:30.163Z,101189.94
2018-10-11T07:22:00.192Z,101191.52
2018-10-11T07:24:30.013Z,101194.42
2018-10-11T07:26:59.776Z,101199.50
2018-10-11T07:29:29.582Z,101198.63
2018-10-11T07:31:59.396Z,101195.44
2018-10-11T07:34:29.162Z,101193.94
2018-10-11T07:36:58.975Z,101203.64
2018-10-11T07:39:28.775Z,101202.78
2018-10-11T07:41:58.505Z,101199.05
2018-10-11T07:44:28.369Z,101188.94
2018-10-11T07:46:58.155Z,101210.03
2018-10-11T07:49:27.876Z,101188.36
2018-10-11T07:51:57.612Z,101183.70
2018-10-11T07:54:33.332Z,101177.45
2018-10-11T07:57:03.718Z,101176.23
2018-10-11T07:59:33.482Z,101169.05
2018-10-11T08:02:03.372Z,101177.56
2018-10-11T08:04:33.120Z,101165.28
2018-10-11T08:07:03.051Z,101162.89
2018-10-11T08:09:32.725Z,101161.06
2018-10-11T08:12:02.733Z,101149.65
2018-10-11T08:14:32.294Z,101156.51
2018-10-11T08:17:02.314Z,101166.39
2018-10-11T08:19:32.182Z,101148.70
2018-10-11T08:22:01.712Z,101157.78
2018-10-11T08:24:31.696Z,101154.47
2018-10-11T08:27:01.317Z,101156.98
2018-10-11T08:29:31.188Z,101168.24
2018-10-11T08:32:01.572Z,101169.30
2018-10-11T08:34:31.363Z,101171.42
2018-10-11T08:37:01.138Z,101186.37
2018-10-11T08:39:30.881Z,101177.03
2018-10-11T08:42:00.608Z,101172.93
2018-10-11T08:44:33.374Z,101173.34
2018-10-11T08:47:03.214Z,101165.53
2018-10-11T08:49:32.978Z,101171.06
2018-10-11T08:52:02.760Z,101155.20
2018-10-11T08:54:37.685Z,101165.89
2018-10-11T08:57:07.970Z,101169.98
2018-10-11T08:59:37.779Z,101172.16
2018-10-11T09:02:07.728Z,101166.42
2018-10-11T09:04:38.208Z,101162.67
2018-10-11T09:07:07.955Z,101171.44
2018-10-11T09:09:38.250Z,101178.44
2018-10-11T09:12:08.047Z,101164.55
2018-10-11T09:14:37.775Z,101167.27
2018-10-11T09:17:07.549Z,101160.77
2018-10-11T09:19:37.560Z,101161.44
2018-10-11T09:22:07.370Z,101172.33
2018-10-11T09:24:37.115Z,101163.48
2018-10-11T09:27:06.985Z,101162.15
2018-10-11T09:29:36.703Z,101163.89
2018-10-11T09:32:06.449Z,101166.72
2018-10-11T09:34:36.295Z,101169.01
2018-10-11T09:37:06.118Z,101162.70
2018-10-11T09:39:35.900Z,101158.70
2018-10-11T09:42:05.629Z,101178.77
2018-10-11T09:44:35.381Z,101166.77
2018-10-11T09:47:05.097Z,101159.44
2018-10-11T09:49:34.873Z,101158.41
2018-10-11T09:52:04.659Z,101175.39
2018-10-11T09:54:34.439Z,101154.66
2018-10-11T09:57:25.246Z,101153.56
2018-10-11T09:59:55.247Z,101161.33
2018-10-11T10:02:25.874Z,101160.66
2018-10-11T10:04:56.963Z,101157.88
2018-10-11T10:07:26.815Z,101147.19
2018-10-11T10:09:56.733Z,101148.11
2018-10-11T10:12:26.477Z,101148.15
2018-10-11T10:14:56.330Z,101146.92
2018-10-11T10:17:26.563Z,101145.58
2018-10-11T10:19:56.358Z,101147.45
2018-10-11T10:22:26.092Z,101151.87
2018-10-11T10:24:55.847Z,101161.44
2018-10-11T10:27:25.726Z,101152.25
2018-10-11T10:29:55.493Z,101155.98
2018-10-11T10:32:25.269Z,101161.38
2018-10-11T10:37:23.833Z,101173.92
2018-10-11T10:39:53.711Z,101151.82
2018-10-11T10:42:23.627Z,101138.98
2018-10-11T10:44:53.608Z,101138.91
2018-10-11T10:47:23.467Z,101134.50
2018-10-11T10:49:53.478Z,101133.65
2018-10-11T10:52:24.155Z,101119.30
2018-10-11T10:54:54.213Z,101122.13
2018-10-11T10:57:24.116Z,101112.17
2018-10-11T10:59:56.942Z,101107.67
2018-10-11T11:02:26.801Z,101119.22
2018-10-11T11:04:56.750Z,101120.48
2018-10-11T11:07:26.797Z,101111.73
2018-10-11T11:09:56.664Z,101106.78
2018-10-11T11:12:26.571Z,101109.44
2018-10-11T11:14:56.404Z,101105.17
2018-10-11T11:17:26.250Z,101114.91
2018-10-11T11:19:56.154Z,101092.17
2018-10-11T11:22:26.284Z,101095.66
2018-10-11T11:24:56.332Z,101082.64
2018-10-11T11:27:26.244Z,101081.06
2018-10-11T11:29:55.923Z,101085.66
2018-10-11T11:32:25.470Z,101080.02
2018-10-11T11:34:55.055Z,101089.36
2018-10-11T11:37:24.669Z,101084.00
2018-10-11T11:39:54.455Z,101077.77
2018-10-11T11:42:24.074Z,101072.45
2018-10-11T11:44:53.677Z,101080.80
2018-10-11T11:47:23.354Z,101080.30
2018-10-11T11:49:52.947Z,101068.64
2018-10-11T11:52:22.551Z,101073.45
2018-10-11T11:54:52.120Z,101067.59
2018-10-11T11:57:21.690Z,101070.06
2018-10-11T11:59:51.283Z,101066.86
2018-10-11T12:02:20.891Z,101079.16
2018-10-11T12:04:50.481Z,101076.88
2018-10-11T12:07:20.098Z,101076.41
2018-10-11T12:09:49.874Z,101066.14
2018-10-11T12:12:56.425Z,101063.78
2018-10-11T12:15:27.334Z,101063.66
2018-10-11T12:17:58.382Z,101063.61
2018-10-11T12:20:29.459Z,101071.55
2018-10-11T12:23:00.432Z,101062.65
2018-10-11T12:25:30.770Z,101062.19
2018-10-11T12:28:00.723Z,101064.34
2018-10-11T12:30:30.964Z,101068.22
2018-10-11T12:33:01.185Z,101065.93
2018-10-11T12:35:31.606Z,101068.88
2018-10-11T12:38:01.505Z,101060.80
2018-10-11T12:40:31.516Z,101086.33
2018-10-11T12:43:01.578Z,101064.91
2018-10-11T12:45:31.539Z,101069.22
2018-10-11T12:48:01.736Z,101065.05
2018-10-11T12:50:31.828Z,101074.73
2018-10-11T12:53:01.734Z,101055.13
2018-10-11T12:55:31.686Z,101063.89
2018-10-11T12:58:01.749Z,101043.75
2018-10-11T13:00:31.738Z,101042.69
2018-10-11T13:03:01.707Z,101040.67
2018-10-11T13:05:31.541Z,101035.20
2018-10-11T13:08:01.567Z,101031.11
2018-10-11T13:10:31.453Z,101032.80
2018-10-11T13:13:07.476Z,101034.03
2018-10-11T13:15:31.426Z,101034.95
2018-10-11T13:18:01.458Z,101033.72
2018-10-11T13:20:31.363Z,101031.56
2018-10-11T13:23:01.261Z,101022.30
2018-10-11T13:25:31.069Z,101024.55
2018-10-11T13:28:00.974Z,101029.77
2018-10-11T13:30:30.884Z,101028.91
2018-10-11T13:33:00.758Z,101023.98
2018-10-11T13:35:30.813Z,101019.89
2018-10-11T13:38:00.737Z,101010.52
2018-10-11T13:40:30.733Z,101017.05
2018-10-11T13:43:00.790Z,101016.08
2018-10-11T13:45:30.749Z,101018.69
2018-10-11T13:48:00.701Z,101016.84
2018-10-11T13:50:30.612Z,101015.92
2018-10-11T13:53:00.527Z,101010.09
2018-10-11T13:55:30.518Z,101007.32
2018-10-11T13:58:00.434Z,101009.52
2018-10-11T14:00:30.305Z,101007.19
2018-10-11T14:03:00.344Z,101007.13
2018-10-11T14:05:30.249Z,101003.55
2018-10-11T14:08:00.121Z,101003.09
2018-10-11T14:10:30.064Z,100991.09
2018-10-11T14:12:59.861Z,100994.58
2018-10-11T14:15:29.749Z,100998.52
2018-10-11T14:18:03.254Z,100992.22
2018-10-11T14:20:29.656Z,100986.37
2018-10-11T14:22:59.528Z,100986.37
2018-10-11T14:25:29.429Z,100991.25
2018-10-11T14:27:59.371Z,100985.05
2018-10-11T14:30:29.243Z,100981.09
2018-10-11T14:32:59.139Z,100974.90
2018-10-11T14:35:29.152Z,100985.05
2018-10-11T14:37:59.283Z,100987.25
2018-10-11T14:40:29.243Z,100981.51
2018-10-11T14:42:59.165Z,100981.97
2018-10-11T14:45:28.993Z,100980.23
2018-10-11T14:47:59.051Z,100974.48
2018-10-11T14:50:29.509Z,100972.39
2018-10-11T14:52:59.355Z,100979.10
2018-10-11T14:55:29.519Z,100964.23
2018-10-11T14:57:59.616Z,100966.08
2018-10-11T15:00:30.116Z,100968.73
2018-10-11T15:03:00.228Z,100962.13
2018-10-11T15:05:30.244Z,100964.38
2018-10-11T15:08:00.162Z,100973.81
2018-10-11T15:10:30.148Z,100974.42
2018-10-11T15:12:59.994Z,100979.02
2018-10-11T15:15:30.066Z,100973.84
2018-10-11T15:18:00.061Z,100981.11
2018-10-11T15:20:29.976Z,100974.22
2018-10-11T15:22:59.922Z,100982.31
2018-10-11T15:25:29.891Z,100982.45
2018-10-11T15:27:59.935Z,100984.43
2018-10-11T15:30:30.045Z,100980.63
2018-10-11T15:33:00.151Z,100985.60
2018-10-11T15:35:30.292Z,100981.78
2018-10-11T15:38:00.558Z,100995.74
2018-10-11T15:40:32.297Z,100987.53
2018-10-11T15:43:02.402Z,100996.61
2018-10-11T15:45:32.331Z,100998.99
2018-10-11T15:48:02.246Z,100998.80
2018-10-11T15:50:32.603Z,100995.90
2018-10-11T15:53:02.843Z,100995.24
2018-10-11T15:55:32.837Z,100992.84
2018-10-11T15:58:02.682Z,100997.17
2018-10-11T16:00:32.686Z,100994.23
2018-10-11T16:03:02.729Z,100990.08
2018-10-11T16:05:32.823Z,100990.25
2018-10-11T16:08:02.937Z,100984.30
2018-10-11T16:10:32.940Z,100984.12
2018-10-11T16:13:02.972Z,100983.00
2018-10-11T16:15:32.888Z,100989.45
2018-10-11T16:18:02.722Z,100989.20
2018-10-11T16:20:32.737Z,100991.70
2018-10-11T16:23:02.790Z,100994.17
2018-10-11T16:25:32.819Z,101000.13
2018-10-11T16:28:02.730Z,101003.53
2018-10-11T16:30:32.569Z,101005.59
2018-10-11T16:33:02.615Z,101009.83
2018-10-11T16:35:32.524Z,101012.69
2018-10-11T16:38:02.464Z,101011.08
2018-10-11T16:40:32.387Z,101017.09
2018-10-11T16:43:02.424Z,101012.97
2018-10-11T16:45:32.310Z,101011.89
2018-10-11T16:48:08.997Z,101020.88
2018-10-11T16:50:39.733Z,101017.90
2018-10-11T16:53:09.749Z,101021.13
2018-10-11T16:55:39.656Z,101022.09
2018-10-11T16:58:09.736Z,101019.53
2018-10-11T17:00:39.950Z,101023.95
2018-10-11T17:03:09.980Z,101023.47
2018-10-11T17:05:40.014Z,101020.88
2018-10-11T17:08:10.040Z,101017.45
2018-10-11T17:10:40.336Z,101031.19
2018-10-11T17:13:10.627Z,101036.52
2018-10-11T17:15:40.562Z,101042.30
2018-10-11T17:18:10.482Z,101039.73
2018-10-11T17:20:40.428Z,101037.63
2018-10-11T17:23:10.414Z,101033.76
2018-10-11T17:25:40.439Z,101035.67
2018-10-11T17:28:10.397Z,101034.46
2018-10-11T17:30:41.033Z,101037.24
2018-10-11T17:33:12.125Z,101036.05
2018-10-11T17:35:42.467Z,101033.91
2018-10-11T17:38:12.387Z,101034.86
2018-10-11T17:40:42.403Z,101030.57
2018-10-11T17:43:12.289Z,101036.36
2018-10-11T17:45:42.957Z,101026.30
2018-10-11T17:48:12.999Z,101031.23
2018-10-11T17:50:43.387Z,101027.75
2018-10-11T17:53:13.448Z,101027.33
2018-10-11T17:55:43.295Z,101025.58
2018-10-11T17:58:13.216Z,101032.64
2018-10-11T18:00:43.247Z,101031.38
2018-10-11T18:03:13.175Z,101027.00
2018-10-11T18:05:43.234Z,101023.56
2018-10-11T18:08:13.312Z,101030.22
2018-10-11T18:10:43.232Z,101023.66
2018-10-11T18:13:13.141Z,101027.72
2018-10-11T18:15:43.052Z,101026.97
2018-10-11T18:18:13.236Z,101023.96
2018-10-11T18:20:43.119Z,101036.86
2018-10-11T18:23:13.130Z,101031.19
2018-10-11T18:25:43.176Z,101025.98
2018-10-11T18:28:13.194Z,101035.80
2018-10-11T18:30:43.378Z,101036.31
2018-10-11T18:33:13.392Z,101043.90
2018-10-11T18:35:43.568Z,101034.76
2018-10-11T18:38:13.516Z,101045.81
2018-10-11T18:40:43.472Z,101041.96
2018-10-11T18:43:13.464Z,101043.82
2018-10-11T18:45:43.531Z,101056.25
2018-10-11T18:48:13.593Z,101057.60
2018-10-11T18:50:43.236Z,101058.95
2018-10-11T18:53:13.023Z,101059.86
2018-10-11T18:55:42.636Z,101052.91
2018-10-11T18:58:12.253Z,101048.14
2018-10-11T19:00:41.896Z,101054.79
2018-10-11T19:03:11.467Z,101050.89
2018-10-11T19:05:41.254Z,101050.48
2018-10-11T19:08:10.987Z,101058.89
2018-10-11T19:10:40.606Z,101054.59
2018-10-11T19:13:10.271Z,101063.45
2018-10-11T19:15:39.926Z,101065.31
2018-10-11T19:18:09.510Z,101064.45
2018-10-11T19:20:39.208Z,101065.40
2018-10-11T19:23:08.829Z,101066.79
2018-10-11T19:25:38.394Z,101062.45
2018-10-11T19:28:07.989Z,101061.66
2018-10-11T19:30:37.574Z,101076.22
2018-10-11T19:33:07.202Z,101071.91
2018-10-11T19:35:36.785Z,101076.77
2018-10-11T19:38:06.418Z,101076.36
2018-10-11T19:40:35.971Z,101085.65
2018-10-11T19:43:06.278Z,101085.67
2018-10-11T19:45:36.196Z,101080.42
2018-10-11T19:48:06.489Z,101087.05
2018-10-11T19:50:36.559Z,101082.71
2018-10-11T19:53:06.136Z,101089.77
2018-10-11T19:55:35.855Z,101088.02
2018-10-11T19:58:05.591Z,101095.98
2018-10-11T20:00:35.227Z,101104.80
2018-10-11T20:03:05.082Z,101103.05
2018-10-11T20:05:35.722Z,101111.83
2018-10-11T20:08:05.393Z,101109.68
2018-10-11T20:10:35.602Z,101117.60
2018-10-11T20:13:05.300Z,101110.59
2018-10-11T20:15:34.956Z,101113.27
2018-10-11T20:18:04.558Z,101115.48
2018-10-11T20:20:34.171Z,101115.05
2018-10-11T20:23:03.779Z,101114.22
2018-10-11T20:25:33.395Z,101117.73
2018-10-11T20:28:02.978Z,101121.70
2018-10-11T20:30:32.616Z,101114.23
2018-10-11T20:33:02.213Z,101116.88
2018-10-11T20:35:31.836Z,101123.45
2018-10-11T20:38:01.496Z,101124.78
2018-10-11T20:40:31.229Z,101122.63
2018-10-11T20:43:00.802Z,101123.52
2018-10-11T20:45:30.426Z,101127.03
2018-10-11T20:48:00.143Z,101126.59
2018-10-11T20:50:29.810Z,101126.59
2018-10-11T20:52:59.520Z,101128.34
2018-10-11T20:55:29.151Z,101124.83
2018-10-11T20:57:58.742Z,101130.97
2018-10-11T21:00:28.388Z,101129.66
2018-10-11T21:02:58.009Z,101138.00
2018-10-11T21:05:27.602Z,101133.62
2018-10-11T21:07:57.263Z,101132.78
2018-10-11T21:10:26.846Z,101141.56
2018-10-11T21:12:56.455Z,101140.24
2018-10-11T21:15:26.052Z,101149.90
2018-10-11T21:17:55.691Z,101149.45
2018-10-11T21:20:25.445Z,101147.73
2018-10-11T21:22:54.897Z,101145.55
2018-10-11T21:25:24.515Z,101145.55
2018-10-11T21:27:54.164Z,101149.05
2018-10-11T21:30:23.833Z,101150.84
2018-10-11T21:32:53.481Z,101150.83
2018-10-11T21:35:23.118Z,101148.64
2018-10-11T21:37:52.728Z,101152.58
2018-10-11T21:40:22.408Z,101152.13
2018-10-11T21:42:52.362Z,101155.19
2018-10-11T21:45:22.576Z,101153.88
2018-10-11T21:47:52.444Z,101154.32
2018-10-11T21:50:22.139Z,101148.17
2018-10-11T21:52:52.410Z,101153.44
2018-10-11T21:55:22.323Z,101151.69
2018-10-11T21:57:52.170Z,101153.47
2018-10-11T22:00:26.099Z,101159.16
2018-10-11T22:02:56.037Z,101153.45
2018-10-11T22:05:25.660Z,101154.77
2018-10-11T22:07:55.277Z,101159.16
2018-10-11T22:10:25.264Z,101153.45
2018-10-11T22:12:55.420Z,101162.20
2018-10-11T22:15:25.266Z,101163.95
2018-10-11T22:17:55.331Z,101166.16
2018-10-11T22:20:25.005Z,101170.52
2018-10-11T22:22:54.674Z,101163.52
2018-10-11T22:25:24.745Z,101162.63
2018-10-11T22:27:55.174Z,101163.50
2018-10-11T22:30:25.200Z,101163.05
2018-10-11T22:32:55.232Z,101169.17
2018-10-11T22:35:25.056Z,101163.03
2018-10-11T22:38:01.366Z,101163.92
2018-10-11T22:40:31.703Z,101161.73
2018-10-11T22:43:01.429Z,101169.16
2018-10-11T22:45:31.178Z,101165.20
2018-10-11T22:48:00.874Z,101161.26
2018-10-11T22:50:30.571Z,101160.81
2018-10-11T22:53:00.278Z,101164.75
2018-10-11T22:55:33.018Z,101159.05
2018-10-11T22:58:02.968Z,101154.68
2018-10-11T23:00:32.802Z,101159.52
2018-10-11T23:03:02.846Z,101152.95
2018-10-11T23:05:32.534Z,101157.76
2018-10-11T23:08:02.179Z,101149.00
2018-10-11T23:10:32.168Z,101151.64
2018-10-11T23:13:01.846Z,101153.83
2018-10-11T23:15:31.610Z,101157.33
2018-10-11T23:18:01.353Z,101159.97
2018-10-11T23:20:30.975Z,101156.91
2018-10-11T23:23:00.560Z,101159.97
2018-10-11T23:25:30.396Z,101166.08
2018-10-11T23:28:00.019Z,101159.95
2018-10-11T23:30:29.638Z,101163.44
2018-10-11T23:32:59.821Z,101167.39
2018-10-11T23:35:29.599Z,101166.97
2018-10-11T23:37:59.201Z,101163.45
2018-10-11T23:40:28.830Z,101172.66
2018-10-11T23:42:58.577Z,101179.69
2018-10-11T23:45:28.326Z,101176.61
2018-10-11T23:47:58.094Z,101177.47
2018-10-11T23:50:28.157Z,101179.66
2018-10-11T23:52:57.766Z,101179.20
2018-10-11T23:55:27.729Z,101181.39
2018-10-11T23:57:57.335Z,101176.14
